Time;durP1;ratioP1;P1;durP2;ratioP2;P2;SDS_P1;SDS_P2;PMS_P1;PMS_P2;Temp;Humidity;BMP_temperature;BMP_pressure;BME280_temperature;BME280_humidity;BME280_pressure;Samples;Min_cycle;Max_cycle;Signal;HPM_P1;HPM_P2
2023/05/26 00:00:34;;;;;;;57.78;38.97;;;15.40;99.90;;;;;;5017084;28;20489;-84
2023/05/26 00:03:02;;;;;;;51.70;40.20;;;15.30;99.90;;;;;;5027620;28;20060;-81
2023/05/26 00:05:29;;;;;;;51.08;40.28;;;15.30;99.90;;;;;;5014455;28;20399;-84
2023/05/26 00:07:55;;;;;;;50.92;40.67;;;15.30;99.90;;;;;;5022003;28;20037;-83
2023/05/26 00:10:21;;;;;;;51.33;38.05;;;15.30;99.90;;;;;;5034189;28;20030;-82
2023/05/26 00:12:47;;;;;;;51.92;39.25;;;15.30;99.90;;;;;;5017525;28;20026;-83
2023/05/26 00:15:13;;;;;;;55.50;40.78;;;15.30;99.90;;;;;;5017764;28;20030;-83
2023/05/26 00:17:39;;;;;;;48.33;40.05;;;15.30;99.90;;;;;;5017162;28;20030;-83
2023/05/26 00:20:07;;;;;;;53.10;39.95;;;15.30;99.90;;;;;;5019762;28;20033;-83
2023/05/26 00:22:35;;;;;;;52.85;40.28;;;15.30;99.90;;;;;;5009830;28;20025;-91
2023/05/26 00:25:03;;;;;;;47.28;38.95;;;15.30;99.90;;;;;;5018273;28;20026;-91
2023/05/26 00:27:29;;;;;;;;;;;15.30;99.90;;;;;;5038706;28;20079;-83
2023/05/26 00:29:54;;;;;;;53.22;38.40;;;15.30;99.90;;;;;;5017652;28;19909;-86
2023/05/26 00:32:20;;;;;;;52.13;38.17;;;15.20;99.90;;;;;;5018843;28;20112;-85
2023/05/26 00:34:46;;;;;;;47.15;36.97;;;15.20;99.90;;;;;;5019442;28;20026;-84
2023/05/26 00:37:12;;;;;;;47.03;38.05;;;15.10;99.90;;;;;;5027627;28;20041;-88
2023/05/26 00:39:38;;;;;;;47.30;37.88;;;15.20;99.90;;;;;;5035779;28;20373;-88
2023/05/26 00:42:04;;;;;;;49.08;38.35;;;15.10;99.90;;;;;;5038906;28;20030;-87
2023/05/26 00:44:30;;;;;;;50.15;37.78;;;15.10;99.90;;;;;;5018118;28;20017;-85
2023/05/26 00:46:56;;;;;;;45.05;37.45;;;15.10;99.90;;;;;;5012343;28;20073;-85
2023/05/26 00:49:22;;;;;;;44.40;36.92;;;15.10;99.90;;;;;;5013334;28;20475;-85
2023/05/26 00:51:48;;;;;;;45.47;35.92;;;15.10;99.90;;;;;;4997245;28;20068;-85
2023/05/26 00:54:14;;;;;;;49.83;37.13;;;15.00;99.90;;;;;;5014656;28;20046;-85
2023/05/26 00:56:42;;;;;;;51.78;38.47;;;15.00;99.90;;;;;;5013789;28;20037;-86
2023/05/26 00:59:11;;;;;;;47.42;38.35;;;15.10;99.90;;;;;;5014867;28;20022;-85
2023/05/26 01:01:37;;;;;;;43.53;34.35;;;15.10;99.90;;;;;;5014494;28;20033;-85
2023/05/26 01:04:03;;;;;;;43.45;35.60;;;15.00;99.90;;;;;;5015974;28;20053;-84
2023/05/26 01:06:31;;;;;;;47.30;34.20;;;15.00;99.90;;;;;;5014149;28;20030;-85
2023/05/26 01:08:58;;;;;;;47.00;35.05;;;15.00;99.90;;;;;;5026196;28;20505;-85
2023/05/26 01:11:38;;;;;;;44.25;35.38;;;15.00;99.90;;;;;;5022543;28;20056;-86
2023/05/26 01:14:10;;;;;;;43.42;33.47;;;15.00;99.90;;;;;;5021242;28;20410;-85
2023/05/26 01:16:42;;;;;;;46.92;34.40;;;15.00;99.90;;;;;;5017625;28;20033;-84
2023/05/26 01:19:36;;;;;;;38.22;33.58;;;15.00;99.90;;;;;;5014390;28;20026;-83
2023/05/26 01:22:51;;;;;;;40.92;33.35;;;15.00;99.90;;;;;;5013902;28;20109;-85
2023/05/26 01:25:28;;;;;;;44.80;32.50;;;15.00;99.90;;;;;;5014685;28;20032;-85
2023/05/26 01:28:06;;;;;;;37.90;32.65;;;15.00;99.90;;;;;;5014373;28;20068;-84
2023/05/26 01:30:35;;;;;;;38.92;31.48;;;15.00;99.90;;;;;;5015719;28;20029;-84
2023/05/26 01:33:16;;;;;;;40.45;31.58;;;15.00;99.90;;;;;;5020290;28;20048;-85
2023/05/26 01:35:42;;;;;;;38.08;32.10;;;15.10;99.90;;;;;;5017681;28;20093;-83
2023/05/26 01:38:09;;;;;;;38.50;31.52;;;15.10;99.90;;;;;;5020588;28;20030;-87
2023/05/26 01:40:37;;;;;;;35.08;29.33;;;15.10;99.90;;;;;;5016354;28;20029;-85
2023/05/26 01:43:24;;;;;;;37.40;30.70;;;15.20;99.90;;;;;;5016688;28;20033;-86
2023/05/26 01:46:30;;;;;;;40.25;30.80;;;15.20;99.90;;;;;;5002039;28;20400;-86
2023/05/26 01:48:58;;;;;;;35.63;29.30;;;15.30;99.90;;;;;;4991362;28;20038;-84
2023/05/26 01:51:32;;;;;;;35.83;31.88;;;15.30;99.90;;;;;;5004288;28;20521;-86
2023/05/26 01:54:00;;;;;;;35.35;30.98;;;15.40;99.90;;;;;;5022456;28;20057;-85
2023/05/26 01:56:26;;;;;;;36.83;31.08;;;15.40;99.90;;;;;;5007839;28;20034;-86
2023/05/26 01:58:53;;;;;;;33.55;29.02;;;15.40;99.90;;;;;;5018495;28;20487;-84
2023/05/26 02:01:19;;;;;;;35.10;29.67;;;15.50;99.90;;;;;;5016233;28;20159;-86
2023/05/26 02:03:45;;;;;;;37.22;30.10;;;15.50;99.90;;;;;;5022994;28;20283;-85
2023/05/26 02:06:11;;;;;;;39.35;29.73;;;15.60;99.90;;;;;;5036348;28;20014;-85
2023/05/26 02:08:37;;;;;;;33.78;28.60;;;15.60;99.90;;;;;;5008862;28;20060;-85
2023/05/26 02:11:03;;;;;;;39.63;30.80;;;15.70;99.90;;;;;;5038281;28;20431;-85
2023/05/26 02:13:28;;;;;;;36.50;29.25;;;15.70;99.90;;;;;;5029800;28;20591;-85
2023/05/26 02:15:54;;;;;;;32.90;28.55;;;15.70;99.90;;;;;;5032160;28;20033;-84
2023/05/26 02:18:21;;;;;;;32.42;28.38;;;15.80;99.90;;;;;;5028364;28;20029;-86
2023/05/26 02:20:47;;;;;;;33.42;27.00;;;15.80;99.90;;;;;;5013216;28;20419;-85
2023/05/26 02:23:13;;;;;;;31.42;27.80;;;15.80;99.90;;;;;;5014594;28;20383;-86
2023/05/26 02:25:39;;;;;;;33.63;28.10;;;15.90;99.90;;;;;;5024561;28;20069;-86
2023/05/26 02:28:05;;;;;;;30.23;25.83;;;15.90;99.90;;;;;;5032348;28;20017;-85
2023/05/26 02:30:31;;;;;;;32.33;26.63;;;15.90;99.90;;;;;;5022841;28;20353;-86
2023/05/26 02:32:57;;;;;;;31.33;26.00;;;15.90;99.90;;;;;;5016022;28;20029;-86
2023/05/26 02:35:22;;;;;;;31.98;27.40;;;16.00;99.90;;;;;;4996510;28;20025;-85
2023/05/26 02:37:48;;;;;;;38.40;28.27;;;16.10;99.90;;;;;;5000864;28;20157;-86
2023/05/26 02:40:15;;;;;;;29.65;24.92;;;16.10;99.90;;;;;;4975941;28;20031;-85
2023/05/26 02:42:41;;;;;;;29.57;25.23;;;16.10;99.90;;;;;;4978305;28;20038;-86
2023/05/26 02:45:07;;;;;;;28.83;24.52;;;16.20;99.90;;;;;;4996234;28;20267;-85
2023/05/26 02:47:34;;;;;;;28.80;24.42;;;16.30;99.90;;;;;;4992090;28;20026;-87
2023/05/26 02:49:59;;;;;;;26.15;22.98;;;16.40;99.90;;;;;;4976041;28;20036;-86
2023/05/26 02:52:25;;;;;;;31.77;24.48;;;16.50;99.90;;;;;;5006373;28;20093;-86
2023/05/26 02:54:51;;;;;;;27.05;24.08;;;16.70;99.90;;;;;;5005941;28;20041;-86
2023/05/26 02:57:17;;;;;;;30.20;24.60;;;16.70;99.90;;;;;;5014362;28;20058;-87
2023/05/26 02:59:43;;;;;;;26.85;23.50;;;16.80;99.90;;;;;;4997630;28;20482;-87
2023/05/26 03:02:12;;;;;;;24.33;22.00;;;16.90;99.90;;;;;;4981828;28;20049;-85
2023/05/26 03:04:37;;;;;;;24.95;21.75;;;17.00;99.90;;;;;;4998041;28;20022;-86
2023/05/26 03:07:04;;;;;;;28.30;23.48;;;17.00;99.90;;;;;;4983781;28;20038;-87
2023/05/26 03:09:30;;;;;;;24.80;22.13;;;17.10;99.90;;;;;;4994557;28;20030;-86
2023/05/26 03:11:56;;;;;;;25.65;22.70;;;17.10;99.90;;;;;;4982914;28;20034;-86
2023/05/26 03:14:22;;;;;;;23.60;20.92;;;17.20;99.90;;;;;;5007990;28;20070;-86
2023/05/26 03:16:51;;;;;;;22.98;20.13;;;17.20;99.90;;;;;;5010959;28;20038;-85
2023/05/26 03:19:17;;;;;;;21.15;19.05;;;17.30;99.90;;;;;;5004215;28;20026;-87
2023/05/26 03:21:46;;;;;;;29.35;21.23;;;17.30;99.90;;;;;;5028354;28;20025;-87
2023/05/26 03:24:12;;;;;;;26.75;20.98;;;17.40;99.90;;;;;;5026492;28;20052;-86
2023/05/26 03:26:42;;;;;;;22.98;20.42;;;17.40;99.90;;;;;;5007035;28;20039;-86
2023/05/26 03:29:08;;;;;;;23.45;20.98;;;17.50;99.90;;;;;;5010942;28;20045;-86
2023/05/26 03:31:33;;;;;;;28.35;21.10;;;17.50;99.90;;;;;;5010696;28;20085;-87
2023/05/26 03:34:00;;;;;;;22.80;20.40;;;17.60;99.90;;;;;;4994787;28;20467;-87
2023/05/26 03:36:27;;;;;;;23.67;19.98;;;17.60;99.90;;;;;;5019566;28;20041;-85
2023/05/26 03:38:53;;;;;;;21.73;19.63;;;17.70;99.70;;;;;;4994494;28;20127;-85
2023/05/26 03:41:18;;;;;;;25.02;20.05;;;17.80;99.50;;;;;;5009792;28;20107;-84
2023/05/26 03:43:44;;;;;;;21.42;18.88;;;17.80;99.30;;;;;;5015157;28;20507;-85
2023/05/26 03:46:10;;;;;;;23.00;20.25;;;17.90;99.20;;;;;;4998027;28;20772;-86
2023/05/26 03:48:36;;;;;;;22.05;19.67;;;18.00;98.90;;;;;;5003246;28;20523;-86
2023/05/26 03:51:02;;;;;;;21.17;18.98;;;18.00;98.60;;;;;;5003309;28;20047;-86
2023/05/26 03:53:28;;;;;;;20.95;18.70;;;18.00;98.60;;;;;;4990032;28;20051;-86
2023/05/26 03:55:54;;;;;;;21.52;18.55;;;18.10;98.20;;;;;;4992180;28;20027;-85
2023/05/26 03:58:21;;;;;;;24.88;18.45;;;18.10;98.20;;;;;;5019123;28;20094;-85
2023/05/26 04:00:47;;;;;;;24.65;18.08;;;18.20;97.90;;;;;;5017619;28;20070;-86
2023/05/26 04:03:13;;;;;;;21.40;16.25;;;18.30;97.90;;;;;;4989487;28;20060;-86
2023/05/26 04:05:39;;;;;;;23.33;19.20;;;18.40;97.40;;;;;;5017613;28;20029;-86
2023/05/26 04:08:05;;;;;;;18.70;16.90;;;18.50;97.20;;;;;;5020329;28;20498;-86
2023/05/26 04:10:31;;;;;;;18.23;16.30;;;18.50;97.10;;;;;;5021056;28;20395;-87
2023/05/26 04:12:57;;;;;;;17.73;15.05;;;18.60;96.70;;;;;;5018337;28;20153;-86
2023/05/26 04:15:23;;;;;;;19.85;15.70;;;18.70;96.30;;;;;;5029088;28;20109;-85
2023/05/26 04:17:49;;;;;;;17.63;15.77;;;18.80;95.90;;;;;;5001087;28;20033;-85
2023/05/26 04:20:15;;;;;;;18.45;15.80;;;18.90;95.70;;;;;;5018354;28;20033;-85
2023/05/26 04:22:41;;;;;;;18.20;16.15;;;19.00;95.40;;;;;;4997575;28;20057;-85
2023/05/26 04:25:07;;;;;;;18.42;16.38;;;19.10;95.20;;;;;;5016710;28;20471;-86
2023/05/26 04:27:37;;;;;;;17.25;15.45;;;19.20;94.90;;;;;;4999156;28;20116;-87
2023/05/26 04:30:04;;;;;;;21.73;16.88;;;19.20;94.50;;;;;;5016404;28;20025;-86
2023/05/26 04:32:33;;;;;;;17.40;15.48;;;19.30;94.30;;;;;;5011375;28;20029;-86
2023/05/26 04:35:00;;;;;;;17.85;15.90;;;19.30;94.20;;;;;;5012299;28;20087;-84
2023/05/26 04:37:26;;;;;;;18.33;16.42;;;19.40;94.20;;;;;;5014217;28;20376;-84
2023/05/26 04:39:52;;;;;;;19.08;16.58;;;19.50;94.00;;;;;;5016263;28;20041;-83
2023/05/26 04:42:21;;;;;;;21.88;15.20;;;19.60;93.80;;;;;;5027146;28;20030;-87
2023/05/26 04:44:47;;;;;;;17.25;14.70;;;19.70;93.60;;;;;;5041566;28;20017;-88
2023/05/26 04:47:13;;;;;;;15.38;13.77;;;19.70;93.00;;;;;;5009912;28;20029;-85
2023/05/26 04:49:40;;;;;;;16.42;14.75;;;19.80;92.80;;;;;;5005291;28;20081;-86
2023/05/26 04:52:06;;;;;;;15.23;13.70;;;19.80;92.70;;;;;;4986902;28;20069;-89
2023/05/26 04:54:34;;;;;;;14.65;12.57;;;19.80;92.60;;;;;;4992977;28;20100;-87
2023/05/26 04:57:00;;;;;;;17.00;13.50;;;19.80;92.60;;;;;;4981227;28;20041;-86
2023/05/26 04:59:27;;;;;;;16.30;13.68;;;19.90;92.80;;;;;;5002476;28;20056;-85
2023/05/26 05:01:52;;;;;;;17.77;14.77;;;20.20;92.90;;;;;;5012473;28;20067;-86
2023/05/26 05:04:19;;;;;;;15.63;13.18;;;20.80;92.30;;;;;;5002094;28;20049;-88
2023/05/26 05:06:45;;;;;;;16.05;12.85;;;21.70;90.40;;;;;;5010539;28;20475;-85
2023/05/26 05:09:11;;;;;;;14.15;12.70;;;22.70;87.20;;;;;;5013894;28;20034;-85
2023/05/26 05:11:38;;;;;;;14.52;12.82;;;23.80;83.30;;;;;;5010889;28;20026;-85
2023/05/26 05:14:04;;;;;;;14.32;11.80;;;24.60;77.90;;;;;;4982706;28;20018;-88
2023/05/26 05:16:30;;;;;;;14.57;12.65;;;25.50;74.90;;;;;;4981013;28;20037;-87
2023/05/26 05:18:56;;;;;;;17.52;11.80;;;26.30;71.50;;;;;;4994013;28;20026;-86
2023/05/26 05:21:21;;;;;;;13.15;11.85;;;26.80;68.30;;;;;;5011283;28;20053;-87
2023/05/26 05:23:47;;;;;;;16.50;10.95;;;27.30;66.20;;;;;;5002833;28;20045;-88
2023/05/26 05:26:13;;;;;;;13.68;12.15;;;28.10;65.00;;;;;;5024376;28;20025;-88
2023/05/26 05:28:39;;;;;;;12.85;11.43;;;28.90;61.40;;;;;;5000934;28;20026;-87
2023/05/26 05:31:05;;;;;;;16.13;10.10;;;29.50;61.20;;;;;;5020098;28;20149;-88
2023/05/26 05:33:31;;;;;;;15.63;10.65;;;30.10;59.00;;;;;;5013525;28;20038;-88
2023/05/26 05:35:57;;;;;;;14.10;10.40;;;30.80;57.60;;;;;;5020031;28;20089;-87
2023/05/26 05:38:23;;;;;;;16.30;9.73;;;31.40;53.90;;;;;;5025237;28;20477;-86
2023/05/26 05:40:49;;;;;;;12.20;8.10;;;31.50;53.10;;;;;;5024152;28;20049;-85
2023/05/26 05:43:14;;;;;;;8.17;7.37;;;31.90;51.50;;;;;;5020393;28;20030;-80
2023/05/26 05:45:41;;;;;;;9.10;7.50;;;32.10;50.10;;;;;;5015633;28;20030;-84
2023/05/26 05:48:06;;;;;;;10.20;8.10;;;32.20;50.00;;;;;;5015598;28;20025;-85
2023/05/26 05:50:32;;;;;;;11.07;8.33;;;32.50;49.50;;;;;;5021906;28;20014;-84
2023/05/26 05:52:58;;;;;;;13.33;7.90;;;33.10;49.30;;;;;;5028535;28;20054;-83
2023/05/26 05:55:24;;;;;;;11.00;6.53;;;33.80;47.50;;;;;;5018451;28;20387;-85
2023/05/26 05:57:52;;;;;;;7.90;7.03;;;33.90;46.10;;;;;;5016714;28;20511;-85
2023/05/26 06:00:18;;;;;;;7.15;5.72;;;34.20;45.10;;;;;;5014160;28;20416;-83
2023/05/26 06:02:44;;;;;;;6.88;5.65;;;34.30;44.00;;;;;;5013769;28;20554;-83
2023/05/26 06:05:10;;;;;;;6.10;5.50;;;34.60;43.50;;;;;;5013907;28;20038;-82
2023/05/26 06:07:36;;;;;;;6.87;6.27;;;34.90;42.30;;;;;;5014831;28;20441;-84
2023/05/26 06:10:01;;;;;;;9.20;7.20;;;35.40;42.30;;;;;;5013887;28;20053;-83
2023/05/26 06:12:27;;;;;;;8.13;7.17;;;35.80;41.50;;;;;;5013649;28;20037;-85
2023/05/26 06:14:53;;;;;;;12.35;7.15;;;35.90;41.10;;;;;;5014916;28;20104;-84
2023/05/26 06:17:19;;;;;;;12.50;6.40;;;36.20;40.90;;;;;;5013163;28;20491;-84
2023/05/26 06:19:45;;;;;;;9.05;7.25;;;36.80;40.50;;;;;;5010752;28;20045;-84
2023/05/26 06:22:11;;;;;;;12.30;6.23;;;37.50;40.60;;;;;;5013263;28;20034;-85
2023/05/26 06:24:37;;;;;;;9.23;5.93;;;38.10;38.90;;;;;;5013038;28;20260;-85
2023/05/26 06:27:03;;;;;;;8.82;6.10;;;38.40;37.80;;;;;;5013506;28;20267;-87
2023/05/26 06:29:29;;;;;;;8.63;5.05;;;38.80;36.90;;;;;;5015032;28;20018;-85
2023/05/26 06:31:56;;;;;;;8.20;4.55;;;39.20;36.00;;;;;;5016392;28;20038;-85
2023/05/26 06:34:22;;;;;;;8.98;4.53;;;39.80;35.40;;;;;;5013210;28;20030;-87
2023/05/26 06:36:50;;;;;;;5.75;5.15;;;40.30;34.70;;;;;;5012604;28;20037;-85
2023/05/26 06:39:15;;;;;;;6.55;5.32;;;40.10;33.90;;;;;;5012782;28;20014;-85
2023/05/26 06:41:41;;;;;;;5.80;5.20;;;39.80;33.80;;;;;;5013023;28;20037;-83
2023/05/26 06:44:09;;;;;;;7.55;4.97;;;40.00;34.00;;;;;;5013058;28;20026;-85
2023/05/26 06:46:36;;;;;;;6.28;4.72;;;40.00;33.70;;;;;;5021833;28;20025;-83
2023/05/26 06:49:02;;;;;;;7.93;4.90;;;40.20;33.60;;;;;;5017654;28;20030;-85
2023/05/26 06:51:29;;;;;;;8.48;5.40;;;39.70;32.80;;;;;;5013344;28;20033;-85
2023/05/26 06:53:55;;;;;;;6.78;5.15;;;40.10;33.40;;;;;;5013993;28;20056;-85
2023/05/26 06:56:21;;;;;;;5.85;4.38;;;40.70;32.50;;;;;;5003228;28;20042;-85
2023/05/26 06:58:47;;;;;;;6.78;5.35;;;41.40;31.10;;;;;;5016984;28;20022;-86
2023/05/26 07:01:13;;;;;;;5.93;4.68;;;42.00;31.20;;;;;;5017690;28;20088;-85
2023/05/26 07:03:39;;;;;;;8.68;4.75;;;42.30;31.40;;;;;;5000649;28;20598;-84
2023/05/26 07:06:05;;;;;;;4.70;4.30;;;42.50;31.00;;;;;;5019715;28;20103;-85
2023/05/26 07:08:31;;;;;;;;;;;42.80;31.00;;;;;;5019238;28;20022;-84
2023/05/26 07:10:57;;;;;;;6.97;4.18;;;43.20;32.90;;;;;;5030826;28;19995;-86
2023/05/26 07:13:22;;;;;;;;;;;43.30;30.90;;;;;;5028811;28;20083;-85
2023/05/26 07:15:48;;;;;;;7.90;5.20;;;43.60;33.30;;;;;;5020694;28;19901;-85
2023/05/26 07:18:14;;;;;;;;;;;43.10;30.80;;;;;;5032827;28;20022;-85
2023/05/26 07:20:40;;;;;;;5.40;3.88;;;42.40;31.80;;;;;;4999764;28;19916;-85
2023/05/26 07:23:05;;;;;;;;;;;41.90;30.50;;;;;;5015639;28;20117;-85
2023/05/26 07:25:31;;;;;;;6.50;4.90;;;42.50;32.30;;;;;;5024394;28;20322;-85
2023/05/26 07:27:57;;;;;;;;;;;43.20;30.30;;;;;;5021575;28;20025;-85
2023/05/26 07:30:23;;;;;;;6.63;4.47;;;43.90;31.90;;;;;;5026630;28;19905;-85
2023/05/26 07:32:49;;;;;;;5.75;3.35;;;44.10;29.00;;;;;;5039338;28;20461;-86
2023/05/26 07:35:15;;;;;;;;;;;43.90;28.60;;;;;;5020485;28;20018;-86
2023/05/26 07:37:40;;;;;;;5.65;3.78;;;43.70;30.20;;;;;;5014977;28;20314;-87
2023/05/26 07:40:06;;;;;;;;;;;43.50;29.00;;;;;;5017225;28;20091;-84
2023/05/26 07:42:33;;;;;;;6.45;3.47;;;43.80;30.40;;;;;;5017772;28;19911;-86
2023/05/26 07:45:00;;;;;;;5.05;3.53;;;43.70;28.60;;;;;;5016001;28;20027;-84
2023/05/26 07:47:29;;;;;;;7.45;4.10;;;43.50;28.40;;;;;;5025624;28;20475;-84
2023/05/26 07:49:55;;;;;;;7.18;3.88;;;43.30;28.20;;;;;;5037410;28;20021;-86
2023/05/26 07:52:21;;;;;;;;;;;42.70;28.50;;;;;;5037930;28;20052;-85
2023/05/26 07:54:47;;;;;;;7.80;4.03;;;42.10;28.90;;;;;;5029526;28;19981;-84
2023/05/26 07:57:12;;;;;;;4.50;4.10;;;41.20;29.20;;;;;;5032606;28;20030;-86
2023/05/26 07:59:38;;;;;;;4.65;3.67;;;41.30;29.30;;;;;;5029622;28;20041;-86
2023/05/26 08:02:04;;;;;;;5.80;3.80;;;41.80;29.10;;;;;;5028431;28;20034;-86
2023/05/26 08:04:30;;;;;;;7.18;3.50;;;42.20;28.60;;;;;;5025092;28;20037;-86
2023/05/26 08:06:56;;;;;;;;;;;42.80;28.30;;;;;;5027308;28;20034;-86
2023/05/26 08:09:21;;;;;;;5.95;3.78;;;43.40;29.30;;;;;;5041667;28;19916;-86
2023/05/26 08:11:47;;;;;;;;;;;44.00;27.90;;;;;;5020035;28;20033;-88
2023/05/26 08:14:13;;;;;;;6.78;4.63;;;44.10;29.10;;;;;;5017713;28;19916;-87
2023/05/26 08:16:39;;;;;;;5.03;3.63;;;44.10;28.30;;;;;;5017731;28;20029;-85
2023/05/26 08:19:05;;;;;;;4.75;3.80;;;43.60;28.30;;;;;;5027210;28;20076;-86
2023/05/26 08:21:31;;;;;;;11.50;4.00;;;43.20;28.50;;;;;;5016325;28;20022;-86
2023/05/26 08:23:57;;;;;;;;;;;43.50;28.80;;;;;;5016615;28;20049;-87
2023/05/26 08:26:22;;;;;;;4.47;4.05;;;43.70;29.60;;;;;;5016898;28;19951;-86
2023/05/26 08:28:48;;;;;;;;;;;43.80;28.70;;;;;;5018137;28;20026;-89
2023/05/26 08:31:14;;;;;;;6.57;3.70;;;44.00;29.80;;;;;;5018918;28;19905;-86
2023/05/26 08:33:40;;;;;;;5.93;3.67;;;44.30;28.10;;;;;;5002651;28;20022;-86
2023/05/26 08:36:06;;;;;;;5.35;3.50;;;44.40;28.00;;;;;;5022190;28;20045;-85
2023/05/26 08:38:32;;;;;;;7.82;4.95;;;44.60;28.00;;;;;;5019409;28;20026;-86
2023/05/26 08:41:01;;;;;;;4.53;3.88;;;;;;;;;;5015207;28;20045;-86
2023/05/26 08:43:49;;;;;;;3.53;3.22;;;45.10;28.50;;;;;;5016678;28;20076;-87
2023/05/26 08:46:16;;;;;;;6.90;3.75;;;45.70;27.10;;;;;;5015553;28;20121;-86
2023/05/26 08:48:42;;;;;;;5.15;3.90;;;45.40;26.90;;;;;;5015371;28;20089;-88
2023/05/26 08:51:09;;;;;;;7.65;3.50;;;45.30;27.10;;;;;;5016325;28;20022;-85
2023/05/26 08:53:36;;;;;;;4.47;3.55;;;45.00;26.90;;;;;;5015426;28;20049;-85
2023/05/26 08:56:04;;;;;;;9.73;3.53;;;44.00;27.00;;;;;;5017308;28;20113;-87
2023/05/26 08:58:33;;;;;;;6.72;3.97;;;43.20;27.80;;;;;;5018134;28;20022;-85
2023/05/26 09:01:03;;;;;;;5.63;4.50;;;42.10;27.80;;;;;;5013519;28;20483;-86
2023/05/26 09:03:29;;;;;;;7.55;3.35;;;41.60;28.70;;;;;;5015625;28;20442;-87
2023/05/26 09:05:56;;;;;;;4.68;4.05;;;41.40;28.80;;;;;;5029762;28;20079;-88
2023/05/26 09:08:22;;;;;;;9.23;4.88;;;41.80;28.40;;;;;;5015079;28;22966;-86
2023/05/26 09:10:48;;;;;;;5.03;3.53;;;41.80;28.90;;;;;;5017005;28;20028;-87
2023/05/26 09:13:17;;;;;;;6.97;4.22;;;42.60;28.50;;;;;;5002066;28;20026;-86
2023/05/26 09:15:48;;;;;;;4.07;3.67;;;42.90;28.10;;;;;;5020619;28;20010;-83
2023/05/26 09:18:14;;;;;;;4.47;3.67;;;42.20;28.20;;;;;;5019266;28;20029;-85
2023/05/26 09:20:45;;;;;;;5.22;4.07;;;42.40;28.50;;;;;;5018965;28;20033;-84
2023/05/26 09:23:11;;;;;;;6.05;4.05;;;42.60;28.60;;;;;;5019333;28;20084;-86
2023/05/26 09:25:40;;;;;;;8.07;4.13;;;43.30;28.60;;;;;;5021394;28;20033;-85
2023/05/26 09:28:09;;;;;;;12.60;4.00;;;43.80;27.50;;;;;;5019664;28;20471;-84
2023/05/26 09:30:46;;;;;;;5.53;3.58;;;43.30;27.70;;;;;;5017335;28;20030;-84
2023/05/26 09:33:14;;;;;;;5.00;4.30;;;42.30;28.00;;;;;;5012938;28;20034;-85
2023/05/26 09:35:42;;;;;;;7.43;3.50;;;42.30;28.30;;;;;;5019830;28;20025;-85
2023/05/26 09:38:10;;;;;;;5.60;4.43;;;42.60;28.30;;;;;;5020967;28;20030;-86
2023/05/26 09:40:45;;;;;;;5.78;4.13;;;42.80;28.40;;;;;;5021789;28;20022;-90
2023/05/26 09:43:11;;;;;;;6.78;4.25;;;43.50;28.70;;;;;;5021747;28;20464;-87
2023/05/26 09:45:38;;;;;;;9.27;4.63;;;43.70;27.90;;;;;;5017666;28;20022;-88
2023/05/26 09:48:06;;;;;;;4.30;3.90;;;43.10;28.10;;;;;;5029561;28;20033;-87
2023/05/26 09:50:33;;;;;;;6.70;4.00;;;42.40;28.00;;;;;;5016860;28;20022;-85
2023/05/26 09:53:01;;;;;;;6.50;5.88;;;42.00;28.10;;;;;;4994078;28;20042;-86
2023/05/26 09:55:27;;;;;;;4.38;3.97;;;41.80;28.80;;;;;;4982241;28;20031;-87
2023/05/26 09:57:54;;;;;;;8.18;4.00;;;41.50;28.80;;;;;;4999154;28;20510;-86
2023/05/26 10:00:21;;;;;;;5.18;4.50;;;40.10;28.90;;;;;;5012207;28;20026;-86
2023/05/26 10:02:47;;;;;;;6.50;4.55;;;39.90;30.00;;;;;;5017811;28;20034;-87
2023/05/26 10:05:17;;;;;;;7.63;3.95;;;40.40;29.50;;;;;;4996017;28;20387;-85
2023/05/26 10:07:44;;;;;;;9.48;4.45;;;40.90;29.50;;;;;;5011704;28;20030;-87
2023/05/26 10:10:13;;;;;;;6.57;4.82;;;41.40;28.80;;;;;;4993814;28;20065;-88
2023/05/26 10:12:41;;;;;;;4.78;4.30;;;41.30;29.10;;;;;;4996132;28;20022;-88
2023/05/26 10:15:07;;;;;;;7.70;5.40;;;41.50;28.50;;;;;;5001179;28;20033;-88
2023/05/26 10:17:35;;;;;;;7.28;4.00;;;41.30;28.70;;;;;;5020182;28;20061;-85
2023/05/26 10:20:02;;;;;;;4.85;4.30;;;41.00;28.50;;;;;;4981568;28;20026;-87
2023/05/26 10:22:37;;;;;;;7.15;4.00;;;41.10;28.80;;;;;;5000372;28;20069;-85
2023/05/26 10:25:24;;;;;;;8.07;4.43;;;40.90;28.90;;;;;;5002894;28;20026;-88
2023/05/26 10:28:13;;;;;;;4.80;4.40;;;39.20;29.40;;;;;;5012214;28;20058;-88
2023/05/26 10:30:42;;;;;;;8.75;4.68;;;37.60;30.40;;;;;;5017697;28;20041;-87
2023/05/26 10:33:18;;;;;;;7.53;4.35;;;35.80;32.10;;;;;;5020376;28;20025;-87
2023/05/26 10:35:55;;;;;;;6.47;5.00;;;34.40;33.80;;;;;;5013667;28;20053;-87
2023/05/26 10:38:36;;;;;;;8.38;6.35;;;33.30;34.20;;;;;;5018591;28;20034;-85
2023/05/26 10:41:02;;;;;;;7.90;5.40;;;32.60;35.60;;;;;;4999667;28;20041;-87
2023/05/26 10:43:29;;;;;;;7.50;5.93;;;31.60;37.00;;;;;;5006944;28;20046;-87
2023/05/26 10:45:57;;;;;;;8.30;5.50;;;30.20;38.80;;;;;;4997349;28;20027;-86
2023/05/26 10:48:40;;;;;;;10.68;5.63;;;29.10;40.40;;;;;;4992900;28;20440;-85
2023/05/26 10:51:13;;;;;;;9.05;5.22;;;28.40;41.60;;;;;;4992915;28;20428;-85
2023/05/26 10:53:43;;;;;;;9.40;5.97;;;27.90;42.80;;;;;;4992432;28;20114;-86
2023/05/26 10:56:13;;;;;;;10.63;5.85;;;27.60;43.40;;;;;;4995238;28;20042;-86
2023/05/26 10:58:41;;;;;;;7.43;6.53;;;27.50;43.40;;;;;;5003040;28;20554;-86
2023/05/26 11:01:12;;;;;;;12.10;5.72;;;27.20;44.00;;;;;;5010677;28;20064;-87
2023/05/26 11:03:45;;;;;;;8.48;5.45;;;26.80;44.50;;;;;;4996005;28;20026;-84
2023/05/26 11:06:31;;;;;;;10.55;5.72;;;26.30;45.40;;;;;;5003721;28;20049;-85
2023/05/26 11:09:02;;;;;;;8.43;4.97;;;25.90;46.60;;;;;;5003112;28;20173;-85
2023/05/26 11:11:32;;;;;;;10.00;5.32;;;25.50;47.50;;;;;;4995092;28;20026;-85
2023/05/26 11:14:12;;;;;;;9.18;6.00;;;25.10;49.00;;;;;;4993603;28;20098;-85
2023/05/26 11:16:42;;;;;;;6.95;5.68;;;24.70;51.00;;;;;;4992788;28;20542;-85
2023/05/26 11:19:14;;;;;;;8.55;7.18;;;24.20;53.10;;;;;;4992476;28;20026;-87
2023/05/26 11:21:40;;;;;;;12.23;7.15;;;23.50;55.10;;;;;;4995707;28;20137;-85
2023/05/26 11:24:07;;;;;;;9.77;6.45;;;23.00;56.00;;;;;;5002011;28;20037;-86
2023/05/26 11:26:34;;;;;;;7.50;6.57;;;22.90;58.00;;;;;;4992508;28;20400;-85
2023/05/26 11:29:03;;;;;;;13.07;6.85;;;23.00;58.30;;;;;;4978254;28;20025;-87
2023/05/26 11:31:30;;;;;;;8.98;6.90;;;23.10;57.00;;;;;;4995749;28;20033;-84
2023/05/26 11:33:57;;;;;;;9.32;6.25;;;23.30;55.80;;;;;;4979477;28;20035;-85
2023/05/26 11:36:24;;;;;;;;;;;23.50;56.00;;;;;;4986921;28;20054;-85
2023/05/26 11:38:57;;;;;;;7.97;6.83;;;23.70;54.00;;;;;;4977353;28;20395;-88
2023/05/26 11:41:27;;;;;;;9.18;6.10;;;24.10;54.50;;;;;;4977436;28;20109;-86
2023/05/26 11:43:54;;;;;;;10.07;6.28;;;24.50;53.30;;;;;;4977946;28;20030;-86
2023/05/26 11:46:20;;;;;;;;;;;24.80;52.00;;;;;;4976736;28;20045;-84
2023/05/26 11:48:46;;;;;;;12.30;5.90;;;25.30;50.90;;;;;;4975545;28;19909;-85
2023/05/26 11:51:20;;;;;;;11.20;5.90;;;25.60;49.40;;;;;;4974748;28;20564;-85
2023/05/26 11:53:57;;;;;;;9.13;6.10;;;25.80;48.80;;;;;;4994521;28;20052;-85
2023/05/26 11:56:33;;;;;;;8.93;6.90;;;25.90;48.40;;;;;;4981472;28;20040;-85
2023/05/26 11:59:00;;;;;;;13.02;6.57;;;26.10;48.00;;;;;;4983211;28;20097;-85
2023/05/26 12:01:27;;;;;;;8.05;5.13;;;26.00;46.30;;;;;;4963154;28;20038;-85
2023/05/26 12:03:55;;;;;;;8.60;5.57;;;25.90;46.90;;;;;;4979101;28;20026;-87
2023/05/26 12:06:26;;;;;;;6.72;4.90;;;25.80;46.90;;;;;;4977629;28;20312;-84
2023/05/26 12:09:02;;;;;;;9.70;6.05;;;25.60;47.30;;;;;;4987234;28;20113;-84
2023/05/26 12:11:38;;;;;;;6.25;5.65;;;25.50;47.60;;;;;;4993567;28;20054;-85
2023/05/26 12:14:12;;;;;;;10.45;5.85;;;25.50;47.30;;;;;;4997246;28;20026;-86
2023/05/26 12:16:46;;;;;;;8.25;5.25;;;25.40;47.50;;;;;;4999389;28;20128;-85
2023/05/26 12:19:21;;;;;;;8.25;5.68;;;25.40;46.70;;;;;;4999427;28;20419;-83
2023/05/26 12:21:48;;;;;;;13.63;6.35;;;25.30;47.10;;;;;;5006587;28;20085;-84
2023/05/26 12:24:28;;;;;;;8.25;5.25;;;25.40;47.20;;;;;;5002877;28;20019;-85
2023/05/26 12:26:54;;;;;;;13.63;6.28;;;25.40;47.20;;;;;;5003529;28;20045;-86
2023/05/26 12:29:20;;;;;;;11.88;6.10;;;25.40;47.00;;;;;;5022162;28;20022;-83
2023/05/26 12:31:49;;;;;;;9.77;6.40;;;25.40;47.20;;;;;;5016184;28;20088;-85
2023/05/26 12:34:23;;;;;;;11.63;6.70;;;25.50;47.80;;;;;;5001642;28;20380;-85
2023/05/26 12:36:51;;;;;;;8.38;6.38;;;25.50;47.10;;;;;;4989672;28;20042;-83
2023/05/26 12:39:19;;;;;;;6.63;5.95;;;25.50;47.10;;;;;;4998925;28;20074;-85
2023/05/26 12:41:45;;;;;;;7.80;5.90;;;25.40;46.60;;;;;;5000748;28;20539;-84
2023/05/26 12:44:12;;;;;;;7.97;5.65;;;25.40;47.20;;;;;;4999822;28;20456;-84